sensor_id;sensor_type;location;lat;lon;timestamp;pressure;altitude;pressure_sealevel;temperature;humidity
79309;BME280;68767;53.078;7.386;2023-07-28T00:02:14;100450.81;;;17.26;100.00
79309;BME280;68767;53.078;7.386;2023-07-28T00:04:41;100442.31;;;17.28;100.00
79309;BME280;68767;53.078;7.386;2023-07-28T00:07:08;100436.88;;;17.28;100.00
79309;BME280;68767;53.078;7.386;2023-07-28T00:09:35;100441.13;;;17.25;100.00
79309;BME280;68767;53.078;7.386;2023-07-28T00:12:05;100446.94;;;17.27;100.00
79309;BME280;68767;53.078;7.386;2023-07-28T00:14:32;100439.16;;;17.22;100.00
79309;BME280;68767;53.078;7.386;2023-07-28T00:16:59;100446.16;;;17.23;100.00
79309;BME280;68767;53.078;7.386;2023-07-28T00:19:26;100450.03;;;17.26;100.00
79309;BME280;68767;53.078;7.386;2023-07-28T00:21:53;100449.25;;;17.25;100.00
79309;BME280;68767;53.078;7.386;2023-07-28T00:24:22;100447.34;;;17.26;100.00
79309;BME280;68767;53.078;7.386;2023-07-28T00:26:49;100439.19;;;17.26;100.00
79309;BME280;68767;53.078;7.386;2023-07-28T00:29:16;100438.41;;;17.25;100.00
79309;BME280;68767;53.078;7.386;2023-07-28T00:31:43;100443.47;;;17.27;100.00
79309;BME280;68767;53.078;7.386;2023-07-28T00:34:10;100438.00;;;17.23;100.00
79309;BME280;68767;53.078;7.386;2023-07-28T00:36:40;100438.81;;;17.27;100.00
79309;BME280;68767;53.078;7.386;2023-07-28T00:39:07;100445.44;;;17.30;100.00
79309;BME280;68767;53.078;7.386;2023-07-28T00:41:34;100444.28;;;17.31;100.00
79309;BME280;68767;53.078;7.386;2023-07-28T00:44:01;100442.72;;;17.30;100.00
79309;BME280;68767;53.078;7.386;2023-07-28T00:46:28;100441.16;;;17.29;100.00
79309;BME280;68767;53.078;7.386;2023-07-28T00:48:55;100447.78;;;17.31;100.00
79309;BME280;68767;53.078;7.386;2023-07-28T00:51:23;100448.94;;;17.30;100.00
79309;BME280;68767;53.078;7.386;2023-07-28T00:53:50;100442.31;;;17.28;100.00
79309;BME280;68767;53.078;7.386;2023-07-28T00:56:19;100452.00;;;17.29;100.00
79309;BME280;68767;53.078;7.386;2023-07-28T00:58:47;100447.72;;;17.28;100.00
79309;BME280;68767;53.078;7.386;2023-07-28T01:01:14;100448.50;;;17.28;100.00
79309;BME280;68767;53.078;7.386;2023-07-28T01:03:42;100440.81;;;17.30;100.00
79309;BME280;68767;53.078;7.386;2023-07-28T01:06:39;100440.41;;;17.32;100.00
79309;BME280;68767;53.078;7.386;2023-07-28T01:09:13;100443.09;;;17.28;100.00
79309;BME280;68767;53.078;7.386;2023-07-28T01:11:57;100437.25;;;17.26;100.00
79309;BME280;68767;53.078;7.386;2023-07-28T01:14:25;100450.50;;;17.31;100.00
79309;BME280;68767;53.078;7.386;2023-07-28T01:16:55;100443.84;;;17.25;100.00
79309;BME280;68767;53.078;7.386;2023-07-28T01:19:22;100448.56;;;17.32;100.00
79309;BME280;68767;53.078;7.386;2023-07-28T01:21:54;100445.44;;;17.30;100.00
79309;BME280;68767;53.078;7.386;2023-07-28T01:24:39;100448.16;;;17.30;100.00
79309;BME280;68767;53.078;7.386;2023-07-28T01:27:08;100450.81;;;17.26;100.00
79309;BME280;68767;53.078;7.386;2023-07-28T01:29:36;100445.84;;;17.32;100.00
79309;BME280;68767;53.078;7.386;2023-07-28T01:32:03;100443.91;;;17.32;100.00
79309;BME280;68767;53.078;7.386;2023-07-28T01:34:30;100449.66;;;17.27;100.00
79309;BME280;68767;53.078;7.386;2023-07-28T01:36:57;100454.38;;;17.30;100.00
79309;BME280;68767;53.078;7.386;2023-07-28T01:39:24;100458.59;;;17.28;100.00
79309;BME280;68767;53.078;7.386;2023-07-28T01:41:51;100455.09;;;17.27;100.00
79309;BME280;68767;53.078;7.386;2023-07-28T01:44:18;100448.50;;;17.28;100.00
79309;BME280;68767;53.078;7.386;2023-07-28T01:46:45;100457.50;;;17.32;100.00
79309;BME280;68767;53.078;7.386;2023-07-28T01:49:15;100453.94;;;17.28;100.00
79309;BME280;68767;53.078;7.386;2023-07-28T01:51:42;100441.53;;;17.27;100.00
79309;BME280;68767;53.078;7.386;2023-07-28T01:54:09;100452.06;;;17.32;100.00
79309;BME280;68767;53.078;7.386;2023-07-28T01:56:35;100453.59;;;17.30;100.00
79309;BME280;68767;53.078;7.386;2023-07-28T01:59:03;100447.34;;;17.29;100.00
79309;BME280;68767;53.078;7.386;2023-07-28T02:01:32;100455.47;;;17.26;100.00
79309;BME280;68767;53.078;7.386;2023-07-28T02:03:59;100455.47;;;17.26;100.00
79309;BME280;68767;53.078;7.386;2023-07-28T02:06:26;100456.63;;;17.25;100.00
79309;BME280;68767;53.078;7.386;2023-07-28T02:08:54;100450.03;;;17.26;100.00
79309;BME280;68767;53.078;7.386;2023-07-28T02:11:21;100461.38;;;17.31;100.00
79309;BME280;68767;53.078;7.386;2023-07-28T02:13:48;100458.59;;;17.28;100.00
79309;BME280;68767;53.078;7.386;2023-07-28T02:16:16;100450.03;;;17.26;100.00
79309;BME280;68767;53.078;7.386;2023-07-28T02:18:43;100454.28;;;17.23;100.00
79309;BME280;68767;53.078;7.386;2023-07-28T02:21:10;100455.47;;;17.26;100.00
79309;BME280;68767;53.078;7.386;2023-07-28T02:23:37;100457.78;;;17.24;100.00
79309;BME280;68767;53.078;7.386;2023-07-28T02:26:04;100462.44;;;17.23;100.00
79309;BME280;68767;53.078;7.386;2023-07-28T02:28:31;100462.47;;;17.27;100.00
79309;BME280;68767;53.078;7.386;2023-07-28T02:30:58;100460.91;;;17.26;100.00
79309;BME280;68767;53.078;7.386;2023-07-28T02:33:27;100465.56;;;17.25;100.00
79309;BME280;68767;53.078;7.386;2023-07-28T02:35:56;100464.00;;;17.24;100.00
79309;BME280;68767;53.078;7.386;2023-07-28T02:38:23;100467.50;;;17.25;100.00
79309;BME280;68767;53.078;7.386;2023-07-28T02:40:50;100469.06;;;17.26;100.00
79309;BME280;68767;53.078;7.386;2023-07-28T02:43:17;100464.81;;;17.28;100.00
79309;BME280;68767;53.078;7.386;2023-07-28T02:45:48;100469.06;;;17.26;100.00
79309;BME280;68767;53.078;7.386;2023-07-28T02:48:15;100473.69;;;17.25;100.00
79309;BME280;68767;53.078;7.386;2023-07-28T02:50:46;100476.78;;;17.24;100.00
79309;BME280;68767;53.078;7.386;2023-07-28T02:53:14;100471.38;;;17.24;100.00
79309;BME280;68767;53.078;7.386;2023-07-28T02:55:44;100481.84;;;17.25;100.00
79309;BME280;68767;53.078;7.386;2023-07-28T02:58:12;100475.19;;;17.19;100.00
79309;BME280;68767;53.078;7.386;2023-07-28T03:00:41;100474.84;;;17.24;100.00
79309;BME280;68767;53.078;7.386;2023-07-28T03:03:10;100481.47;;;17.27;100.00
79309;BME280;68767;53.078;7.386;2023-07-28T03:05:39;100478.34;;;17.25;100.00
79309;BME280;68767;53.078;7.386;2023-07-28T03:08:20;100483.78;;;17.25;100.00
79309;BME280;68767;53.078;7.386;2023-07-28T03:10:47;100490.78;;;17.26;100.00
79309;BME280;68767;53.078;7.386;2023-07-28T03:13:14;100498.53;;;17.27;100.00
79309;BME280;68767;53.078;7.386;2023-07-28T03:15:41;100493.47;;;17.22;100.00
79309;BME280;68767;53.078;7.386;2023-07-28T03:18:08;100498.13;;;17.25;100.00
79309;BME280;68767;53.078;7.386;2023-07-28T03:20:35;100489.63;;;17.27;100.00
79309;BME280;68767;53.078;7.386;2023-07-28T03:23:02;100497.34;;;17.21;100.00
79309;BME280;68767;53.078;7.386;2023-07-28T03:25:29;100488.09;;;17.29;100.00
79309;BME280;68767;53.078;7.386;2023-07-28T03:27:56;100490.41;;;17.27;100.00
79309;BME280;68767;53.078;7.386;2023-07-28T03:30:23;100486.91;;;17.27;100.00
79309;BME280;68767;53.078;7.386;2023-07-28T03:32:50;100490.00;;;17.25;100.00
79309;BME280;68767;53.078;7.386;2023-07-28T03:35:17;100489.22;;;17.25;100.00
79309;BME280;68767;53.078;7.386;2023-07-28T03:37:52;100492.34;;;17.27;100.00
79309;BME280;68767;53.078;7.386;2023-07-28T03:40:19;100488.44;;;17.24;100.00
79309;BME280;68767;53.078;7.386;2023-07-28T03:42:50;100489.59;;;17.23;100.00
79309;BME280;68767;53.078;7.386;2023-07-28T03:45:17;100496.53;;;17.21;100.00
79309;BME280;68767;53.078;7.386;2023-07-28T03:47:44;100495.41;;;17.22;100.00
79309;BME280;68767;53.078;7.386;2023-07-28T03:50:11;100511.31;;;17.23;100.00
79309;BME280;68767;53.078;7.386;2023-07-28T03:52:38;100498.13;;;17.25;100.00
79309;BME280;68767;53.078;7.386;2023-07-28T03:55:05;100507.03;;;17.22;100.00
79309;BME280;68767;53.078;7.386;2023-07-28T03:57:32;100507.44;;;17.24;100.00
79309;BME280;68767;53.078;7.386;2023-07-28T03:59:59;100516.38;;;17.25;100.00
79309;BME280;68767;53.078;7.386;2023-07-28T04:02:26;100508.63;;;17.27;100.00
79309;BME280;68767;53.078;7.386;2023-07-28T04:04:54;100510.19;;;17.28;100.00
79309;BME280;68767;53.078;7.386;2023-07-28T04:07:22;100512.09;;;17.24;100.00
79309;BME280;68767;53.078;7.386;2023-07-28T04:09:49;100514.47;;;17.29;100.00
79309;BME280;68767;53.078;7.386;2023-07-28T04:12:16;100522.94;;;17.24;100.00
79309;BME280;68767;53.078;7.386;2023-07-28T04:14:43;100515.25;;;17.29;100.00
79309;BME280;68767;53.078;7.386;2023-07-28T04:17:09;100521.00;;;17.24;100.00
79309;BME280;68767;53.078;7.386;2023-07-28T04:19:38;100517.19;;;17.29;100.00
79309;BME280;68767;53.078;7.386;2023-07-28T04:22:05;100513.34;;;17.30;100.00
79309;BME280;68767;53.078;7.386;2023-07-28T04:24:34;100518.72;;;17.26;100.00
79309;BME280;68767;53.078;7.386;2023-07-28T04:27:02;100521.78;;;17.25;100.00
79309;BME280;68767;53.078;7.386;2023-07-28T04:29:29;100523.03;;;17.31;100.00
79309;BME280;68767;53.078;7.386;2023-07-28T04:31:58;100521.09;;;17.31;100.00
79309;BME280;68767;53.078;7.386;2023-07-28T04:34:33;100532.34;;;17.30;100.00
79309;BME280;68767;53.078;7.386;2023-07-28T04:37:11;100526.94;;;17.33;100.00
79309;BME280;68767;53.078;7.386;2023-07-28T04:39:55;100532.38;;;17.33;100.00
79309;BME280;68767;53.078;7.386;2023-07-28T04:42:22;100525.00;;;17.34;100.00
79309;BME280;68767;53.078;7.386;2023-07-28T04:44:50;100533.56;;;17.36;100.00
79309;BME280;68767;53.078;7.386;2023-07-28T04:47:18;100534.72;;;17.35;100.00
79309;BME280;68767;53.078;7.386;2023-07-28T04:49:45;100537.84;;;17.37;100.00
79309;BME280;68767;53.078;7.386;2023-07-28T04:52:30;100540.97;;;17.39;100.00
79309;BME280;68767;53.078;7.386;2023-07-28T04:55:11;100541.38;;;17.41;100.00
79309;BME280;68767;53.078;7.386;2023-07-28T04:57:38;100542.91;;;17.38;100.00
79309;BME280;68767;53.078;7.386;2023-07-28T05:00:06;100551.84;;;17.39;100.00
79309;BME280;68767;53.078;7.386;2023-07-28T05:02:36;100549.53;;;17.41;100.00
79309;BME280;68767;53.078;7.386;2023-07-28T05:05:05;100556.50;;;17.38;100.00
79309;BME280;68767;53.078;7.386;2023-07-28T05:07:32;100555.38;;;17.43;100.00
79309;BME280;68767;53.078;7.386;2023-07-28T05:09:59;100551.88;;;17.42;100.00
79309;BME280;68767;53.078;7.386;2023-07-28T05:12:28;100562.81;;;17.46;100.00
79309;BME280;68767;53.078;7.386;2023-07-28T05:14:55;100560.09;;;17.46;100.00
79309;BME280;68767;53.078;7.386;2023-07-28T05:17:22;100560.81;;;17.43;100.00
79309;BME280;68767;53.078;7.386;2023-07-28T05:20:15;100556.13;;;17.40;100.00
79309;BME280;68767;53.078;7.386;2023-07-28T05:22:55;100556.53;;;17.42;100.00
79309;BME280;68767;53.078;7.386;2023-07-28T05:25:26;100555.34;;;17.39;100.00
79309;BME280;68767;53.078;7.386;2023-07-28T05:27:52;100559.66;;;17.44;100.00
79309;BME280;68767;53.078;7.386;2023-07-28T05:30:20;100567.88;;;17.51;100.00
79309;BME280;68767;53.078;7.386;2023-07-28T05:32:54;100555.06;;;17.48;100.00
79309;BME280;68767;53.078;7.386;2023-07-28T05:35:29;100563.59;;;17.47;100.00
79309;BME280;68767;53.078;7.386;2023-07-28T05:37:56;100566.63;;;17.45;100.00
79309;BME280;68767;53.078;7.386;2023-07-28T05:40:23;100563.22;;;17.48;100.00
79309;BME280;68767;53.078;7.386;2023-07-28T05:42:50;100563.22;;;17.52;100.00
79309;BME280;68767;53.078;7.386;2023-07-28T05:45:17;100568.66;;;17.52;100.00
79309;BME280;68767;53.078;7.386;2023-07-28T05:47:44;100573.69;;;17.50;100.00
79309;BME280;68767;53.078;7.386;2023-07-28T05:50:12;100573.66;;;17.46;100.00
79309;BME280;68767;53.078;7.386;2023-07-28T05:52:39;100576.03;;;17.51;100.00
79309;BME280;68767;53.078;7.386;2023-07-28T05:55:06;100577.66;;;17.56;100.00
79309;BME280;68767;53.078;7.386;2023-07-28T05:57:33;100574.88;;;17.52;100.00
79309;BME280;68767;53.078;7.386;2023-07-28T06:00:04;100578.34;;;17.49;100.00
79309;BME280;68767;53.078;7.386;2023-07-28T06:02:39;100576.09;;;17.55;100.00
79309;BME280;68767;53.078;7.386;2023-07-28T06:05:09;100575.31;;;17.54;100.00
79309;BME280;68767;53.078;7.386;2023-07-28T06:07:36;100583.09;;;17.56;100.00
79309;BME280;68767;53.078;7.386;2023-07-28T06:10:03;100576.13;;;17.58;100.00
79309;BME280;68767;53.078;7.386;2023-07-28T06:12:30;100576.22;;;17.69;100.00
79309;BME280;68767;53.078;7.386;2023-07-28T06:14:57;100568.34;;;17.90;100.00
79309;BME280;68767;53.078;7.386;2023-07-28T06:17:24;100577.28;;;17.91;100.00
79309;BME280;68767;53.078;7.386;2023-07-28T06:19:54;100581.19;;;17.93;100.00
79309;BME280;68767;53.078;7.386;2023-07-28T06:22:21;100578.47;;;17.93;100.00
79309;BME280;68767;53.078;7.386;2023-07-28T06:24:49;100579.25;;;17.94;100.00
79309;BME280;68767;53.078;7.386;2023-07-28T06:27:16;100580.50;;;18.04;100.00
79309;BME280;68767;53.078;7.386;2023-07-28T06:29:43;100591.03;;;18.05;100.00
79309;BME280;68767;53.078;7.386;2023-07-28T06:32:10;100586.00;;;18.07;100.00
79309;BME280;68767;53.078;7.386;2023-07-28T06:34:37;100595.78;;;18.15;100.00
79309;BME280;68767;53.078;7.386;2023-07-28T06:37:05;100599.25;;;18.12;100.00
79309;BME280;68767;53.078;7.386;2023-07-28T06:39:32;100591.59;;;18.21;100.00
79309;BME280;68767;53.078;7.386;2023-07-28T06:41:58;100597.41;;;18.23;100.00
79309;BME280;68767;53.078;7.386;2023-07-28T06:44:26;100600.09;;;18.20;100.00
79309;BME280;68767;53.078;7.386;2023-07-28T06:46:53;100600.84;;;18.17;100.00
79309;BME280;68767;53.078;7.386;2023-07-28T06:49:21;100611.78;;;18.20;100.00
79309;BME280;68767;53.078;7.386;2023-07-28T06:51:48;100612.91;;;18.19;100.00
79309;BME280;68767;53.078;7.386;2023-07-28T06:54:17;100618.78;;;18.25;100.00
79309;BME280;68767;53.078;7.386;2023-07-28T06:56:44;100618.16;;;18.42;100.00
79309;BME280;68767;53.078;7.386;2023-07-28T06:59:11;100629.53;;;18.51;100.00
79309;BME280;68767;53.078;7.386;2023-07-28T07:01:43;100626.72;;;18.44;100.00
79309;BME280;68767;53.078;7.386;2023-07-28T07:04:10;100639.94;;;18.42;100.00
79309;BME280;68767;53.078;7.386;2023-07-28T07:06:37;100635.63;;;18.38;100.00
79309;BME280;68767;53.078;7.386;2023-07-28T07:09:05;100644.69;;;18.52;100.00
79309;BME280;68767;53.078;7.386;2023-07-28T07:11:33;100646.63;;;18.52;100.00
79309;BME280;68767;53.078;7.386;2023-07-28T07:14:01;100654.06;;;18.55;100.00
79309;BME280;68767;53.078;7.386;2023-07-28T07:16:28;100659.97;;;18.64;100.00
79309;BME280;68767;53.078;7.386;2023-07-28T07:18:55;100659.88;;;18.53;100.00
79309;BME280;68767;53.078;7.386;2023-07-28T07:21:24;100662.94;;;18.48;100.00
79309;BME280;68767;53.078;7.386;2023-07-28T07:23:53;100661.38;;;18.51;100.00
79309;BME280;68767;53.078;7.386;2023-07-28T07:26:26;100662.56;;;18.50;100.00
79309;BME280;68767;53.078;7.386;2023-07-28T07:28:53;100664.50;;;18.53;100.00
79309;BME280;68767;53.078;7.386;2023-07-28T07:31:20;100669.63;;;18.58;100.00
79309;BME280;68767;53.078;7.386;2023-07-28T07:33:47;100677.81;;;18.62;100.00
79309;BME280;68767;53.078;7.386;2023-07-28T07:36:15;100679.41;;;18.63;100.00
79309;BME280;68767;53.078;7.386;2023-07-28T07:38:43;100683.78;;;18.71;100.00
79309;BME280;68767;53.078;7.386;2023-07-28T07:41:14;100688.16;;;18.86;100.00
79309;BME280;68767;53.078;7.386;2023-07-28T07:43:47;100690.16;;;18.89;100.00
79309;BME280;68767;53.078;7.386;2023-07-28T07:46:16;100680.78;;;18.87;100.00
79309;BME280;68767;53.078;7.386;2023-07-28T07:48:43;100682.03;;;18.96;100.00
79309;BME280;68767;53.078;7.386;2023-07-28T07:51:10;100681.66;;;19.01;100.00
79309;BME280;68767;53.078;7.386;2023-07-28T07:53:37;100682.81;;;19.00;100.00
79309;BME280;68767;53.078;7.386;2023-07-28T07:56:05;100684.00;;;18.99;100.00
79309;BME280;68767;53.078;7.386;2023-07-28T07:58:33;100691.38;;;18.99;100.00
79309;BME280;68767;53.078;7.386;2023-07-28T08:01:00;100695.59;;;18.89;100.00
79309;BME280;68767;53.078;7.386;2023-07-28T08:03:27;100688.66;;;19.02;100.00
79309;BME280;68767;53.078;7.386;2023-07-28T08:05:54;100693.50;;;19.20;100.00
79309;BME280;68767;53.078;7.386;2023-07-28T08:08:21;100680.09;;;19.59;100.00
79309;BME280;68767;53.078;7.386;2023-07-28T08:10:51;100686.06;;;19.82;100.00
79309;BME280;68767;53.078;7.386;2023-07-28T08:13:18;100696.50;;;19.66;100.00
79309;BME280;68767;53.078;7.386;2023-07-28T08:15:46;100706.25;;;19.67;100.00
79309;BME280;68767;53.078;7.386;2023-07-28T08:18:13;100699.16;;;19.55;100.00
79309;BME280;68767;53.078;7.386;2023-07-28T08:20:41;100701.88;;;19.55;100.00
79309;BME280;68767;53.078;7.386;2023-07-28T08:23:08;100708.56;;;19.69;100.00
79309;BME280;68767;53.078;7.386;2023-07-28T08:25:35;100698.09;;;19.71;100.00
79309;BME280;68767;53.078;7.386;2023-07-28T08:28:03;100707.09;;;19.82;100.00
79309;BME280;68767;53.078;7.386;2023-07-28T08:30:30;100713.97;;;19.58;100.00
79309;BME280;68767;53.078;7.386;2023-07-28T08:32:59;100715.63;;;19.73;100.00
79309;BME280;68767;53.078;7.386;2023-07-28T08:35:26;100715.03;;;20.19;100.00
79309;BME280;68767;53.078;7.386;2023-07-28T08:37:53;100711.56;;;20.40;100.00
79309;BME280;68767;53.078;7.386;2023-07-28T08:40:20;100719.75;;;20.29;100.00
79309;BME280;68767;53.078;7.386;2023-07-28T08:42:47;100723.25;;;20.30;100.00
79309;BME280;68767;53.078;7.386;2023-07-28T08:45:17;100720.22;;;20.45;100.00
79309;BME280;68767;53.078;7.386;2023-07-28T08:47:45;100730.38;;;20.84;100.00
79309;BME280;68767;53.078;7.386;2023-07-28T08:50:12;100728.78;;;20.58;100.00
79309;BME280;68767;53.078;7.386;2023-07-28T08:52:39;100729.91;;;20.39;100.00
79309;BME280;68767;53.078;7.386;2023-07-28T08:55:07;100734.16;;;20.30;100.00
79309;BME280;68767;53.078;7.386;2023-07-28T08:57:34;100737.59;;;20.05;100.00
79309;BME280;68767;53.078;7.386;2023-07-28T09:00:11;100744.25;;;20.18;100.00
79309;BME280;68767;53.078;7.386;2023-07-28T09:02:41;100745.53;;;20.50;100.00
79309;BME280;68767;53.078;7.386;2023-07-28T09:05:17;100745.19;;;20.55;100.00
79309;BME280;68767;53.078;7.386;2023-07-28T09:07:45;100751.41;;;20.48;100.00
79309;BME280;68767;53.078;7.386;2023-07-28T09:10:12;100742.47;;;20.83;100.00
79309;BME280;68767;53.078;7.386;2023-07-28T09:12:47;100734.69;;;20.96;100.00
79309;BME280;68767;53.078;7.386;2023-07-28T09:15:15;100736.66;;;20.95;100.00
79309;BME280;68767;53.078;7.386;2023-07-28T09:17:44;100744.44;;;21.08;100.00
79309;BME280;68767;53.078;7.386;2023-07-28T09:20:15;100754.19;;;20.87;100.00
79309;BME280;68767;53.078;7.386;2023-07-28T09:22:43;100751.81;;;20.61;100.00
79309;BME280;68767;53.078;7.386;2023-07-28T09:25:15;100747.75;;;20.12;100.00
79309;BME280;68767;53.078;7.386;2023-07-28T09:27:50;100751.06;;;19.77;100.00
79309;BME280;68767;53.078;7.386;2023-07-28T09:30:17;100762.38;;;19.75;100.00
79309;BME280;68767;53.078;7.386;2023-07-28T09:32:49;100757.09;;;20.18;100.00
79309;BME280;68767;53.078;7.386;2023-07-28T09:35:16;100748.31;;;20.64;100.00
79309;BME280;68767;53.078;7.386;2023-07-28T09:37:46;100753.41;;;21.22;100.00
79309;BME280;68767;53.078;7.386;2023-07-28T09:40:18;100742.88;;;21.21;100.00
79309;BME280;68767;53.078;7.386;2023-07-28T09:42:47;100753.44;;;20.94;100.00
79309;BME280;68767;53.078;7.386;2023-07-28T09:45:21;100745.56;;;20.57;100.00
79309;BME280;68767;53.078;7.386;2023-07-28T09:48:05;100757.28;;;20.68;100.00
79309;BME280;68767;53.078;7.386;2023-07-28T09:50:37;100765.13;;;20.87;100.00
79309;BME280;68767;53.078;7.386;2023-07-28T09:53:08;100762.00;;;20.85;100.00
79309;BME280;68767;53.078;7.386;2023-07-28T09:55:40;100760.44;;;21.16;100.00
79309;BME280;68767;53.078;7.386;2023-07-28T09:58:10;100755.34;;;21.68;100.00
79309;BME280;68767;53.078;7.386;2023-07-28T10:00:40;100762.38;;;21.62;100.00
79309;BME280;68767;53.078;7.386;2023-07-28T10:03:08;100757.56;;;22.12;100.00
79309;BME280;68767;53.078;7.386;2023-07-28T10:05:36;100759.84;;;22.28;100.00
79309;BME280;68767;53.078;7.386;2023-07-28T10:08:04;100761.13;;;21.92;100.00
79309;BME280;68767;53.078;7.386;2023-07-28T10:10:32;100766.69;;;21.24;100.00
79309;BME280;68767;53.078;7.386;2023-07-28T10:12:59;100772.53;;;21.22;100.00
79309;BME280;68767;53.078;7.386;2023-07-28T10:15:29;100767.84;;;21.26;100.00
79309;BME280;68767;53.078;7.386;2023-07-28T10:17:57;100765.53;;;21.32;100.00
79309;BME280;68767;53.078;7.386;2023-07-28T10:20:30;100770.22;;;21.53;100.00
79309;BME280;68767;53.078;7.386;2023-07-28T10:25:39;100770.47;;;22.05;100.00
79309;BME280;68767;53.078;7.386;2023-07-28T10:30:54;100768.56;;;21.95;100.00
79309;BME280;68767;53.078;7.386;2023-07-28T10:33:36;100775.69;;;22.62;100.00
79309;BME280;68767;53.078;7.386;2023-07-28T10:39:13;100774.38;;;22.88;100.00
79309;BME280;68767;53.078;7.386;2023-07-28T10:42:01;100774.25;;;22.39;100.00
79309;BME280;68767;53.078;7.386;2023-07-28T10:44:29;100779.09;;;21.93;100.00
79309;BME280;68767;53.078;7.386;2023-07-28T10:46:56;100773.28;;;21.73;100.00
79309;BME280;68767;53.078;7.386;2023-07-28T10:49:24;100768.94;;;21.93;100.00
79309;BME280;68767;53.078;7.386;2023-07-28T10:51:52;100771.69;;;21.93;100.00
79309;BME280;68767;53.078;7.386;2023-07-28T10:54:19;100770.13;;;21.81;100.00
79309;BME280;68767;53.078;7.386;2023-07-28T10:56:47;100774.84;;;21.74;100.00
79309;BME280;68767;53.078;7.386;2023-07-28T10:59:15;100777.22;;;21.65;100.00
79309;BME280;68767;53.078;7.386;2023-07-28T11:01:42;100779.56;;;21.66;100.00
79309;BME280;68767;53.078;7.386;2023-07-28T11:06:42;100775.50;;;22.17;100.00
79309;BME280;68767;53.078;7.386;2023-07-28T11:09:11;100764.75;;;22.62;100.00
79309;BME280;68767;53.078;7.386;2023-07-28T11:11:39;100765.44;;;23.29;100.00
79309;BME280;68767;53.078;7.386;2023-07-28T11:14:09;100771.00;;;23.63;100.00
79309;BME280;68767;53.078;7.386;2023-07-28T11:16:37;100773.84;;;23.52;100.00
79309;BME280;68767;53.078;7.386;2023-07-28T11:19:09;100773.91;;;23.45;100.00
79309;BME280;68767;53.078;7.386;2023-07-28T11:21:41;100764.22;;;23.33;100.00
79309;BME280;68767;53.078;7.386;2023-07-28T11:24:09;100762.22;;;22.89;100.00
79309;BME280;68767;53.078;7.386;2023-07-28T11:26:38;100774.59;;;23.11;100.00
79309;BME280;68767;53.078;7.386;2023-07-28T11:29:05;100769.25;;;22.93;100.00
79309;BME280;68767;53.078;7.386;2023-07-28T11:31:33;100770.19;;;22.65;100.00
79309;BME280;68767;53.078;7.386;2023-07-28T11:34:00;100776.13;;;22.50;100.00
79309;BME280;68767;53.078;7.386;2023-07-28T11:36:29;100779.75;;;22.36;100.00
79309;BME280;68767;53.078;7.386;2023-07-28T11:39:00;100771.44;;;22.50;100.00
79309;BME280;68767;53.078;7.386;2023-07-28T11:41:27;100784.91;;;22.93;100.00
79309;BME280;68767;53.078;7.386;2023-07-28T11:43:54;100777.94;;;23.74;100.00
79309;BME280;68767;53.078;7.386;2023-07-28T11:46:39;100788.59;;;24.03;100.00
79309;BME280;68767;53.078;7.386;2023-07-28T11:49:13;100784.31;;;24.02;100.00
79309;BME280;68767;53.078;7.386;2023-07-28T11:51:41;100790.44;;;24.13;100.00
79309;BME280;68767;53.078;7.386;2023-07-28T11:54:15;100786.38;;;23.91;100.00
79309;BME280;68767;53.078;7.386;2023-07-28T11:56:44;100785.88;;;23.99;100.00
79309;BME280;68767;53.078;7.386;2023-07-28T11:59:11;100788.31;;;24.28;100.00
79309;BME280;68767;53.078;7.386;2023-07-28T12:01:57;100785.03;;;24.94;100.00
79309;BME280;68767;53.078;7.386;2023-07-28T12:04:35;100782.69;;;26.06;100.00
79309;BME280;68767;53.078;7.386;2023-07-28T12:07:13;100783.16;;;26.77;100.00
79309;BME280;68767;53.078;7.386;2023-07-28T12:12:29;100782.09;;;27.68;100.00
79309;BME280;68767;53.078;7.386;2023-07-28T12:18:10;100785.34;;;27.18;100.00
79309;BME280;68767;53.078;7.386;2023-07-28T12:20:41;100784.69;;;27.59;100.00
79309;BME280;68767;53.078;7.386;2023-07-28T12:23:08;100791.06;;;28.14;100.00
79309;BME280;68767;53.078;7.386;2023-07-28T12:25:38;100789.72;;;28.06;100.00
79309;BME280;68767;53.078;7.386;2023-07-28T12:28:06;100790.22;;;29.19;100.00
79309;BME280;68767;53.078;7.386;2023-07-28T12:30:45;100789.84;;;27.74;100.00
79309;BME280;68767;53.078;7.386;2023-07-28T12:33:12;100784.06;;;26.54;100.00
79309;BME280;68767;53.078;7.386;2023-07-28T12:35:42;100794.28;;;25.54;100.00
79309;BME280;68767;53.078;7.386;2023-07-28T12:38:11;100786.19;;;24.97;100.00
79309;BME280;68767;53.078;7.386;2023-07-28T12:40:41;100787.69;;;25.48;100.00
79309;BME280;68767;53.078;7.386;2023-07-28T12:43:11;100785.19;;;27.54;100.00
79309;BME280;68767;53.078;7.386;2023-07-28T12:45:58;100792.97;;;29.19;100.00
79309;BME280;68767;53.078;7.386;2023-07-28T12:48:27;100788.47;;;30.97;92.29
79309;BME280;68767;53.078;7.386;2023-07-28T12:50:55;100792.34;;;32.09;86.86
79309;BME280;68767;53.078;7.386;2023-07-28T12:53:25;100788.66;;;31.12;84.58
79309;BME280;68767;53.078;7.386;2023-07-28T12:55:52;100794.84;;;31.34;76.64
79309;BME280;68767;53.078;7.386;2023-07-28T12:58:22;100790.00;;;29.61;82.81
79309;BME280;68767;53.078;7.386;2023-07-28T13:00:51;100800.41;;;28.46;95.18
79309;BME280;68767;53.078;7.386;2023-07-28T13:03:22;100799.53;;;28.36;97.14
79309;BME280;68767;53.078;7.386;2023-07-28T13:05:49;100789.94;;;27.70;100.00
79309;BME280;68767;53.078;7.386;2023-07-28T13:08:16;100793.44;;;26.93;100.00